createdAt,value
2022-11-05T00:10:04.384Z,65.15
2022-11-05T00:20:09.823Z,65.07
2022-11-05T00:30:18.280Z,65.09
2022-11-05T00:40:21.521Z,65.41
2022-11-05T00:50:25.529Z,65.66
2022-11-05T01:00:30.750Z,66.04
2022-11-05T01:10:34.002Z,65.95
2022-11-05T01:20:37.613Z,66.03
2022-11-05T01:30:41.043Z,66.02
2022-11-05T01:40:45.322Z,66.15
2022-11-05T01:51:07.254Z,66.17
2022-11-05T02:01:11.897Z,66.01
2022-11-05T02:11:18.634Z,65.95
2022-11-05T02:21:43.459Z,65.66
2022-11-05T02:32:05.955Z,65.70
2022-11-05T02:42:31.057Z,65.59
2022-11-05T02:52:50.528Z,65.61
2022-11-05T03:02:54.035Z,65.64
2022-11-05T03:13:19.551Z,65.61
2022-11-05T03:23:33.564Z,65.61
2022-11-05T03:33:40.278Z,65.62
2022-11-05T03:43:49.287Z,65.55
2022-11-05T03:53:58.156Z,65.62
2022-11-05T04:04:01.381Z,65.74
2022-11-05T04:14:04.853Z,66.26
2022-11-05T04:24:11.329Z,66.59
2022-11-05T04:34:16.469Z,66.99
2022-11-05T04:44:19.674Z,67.33
2022-11-05T04:54:22.995Z,67.62
2022-11-05T05:04:26.338Z,67.84
2022-11-05T05:14:29.612Z,67.99
2022-11-05T05:24:32.867Z,68.24
2022-11-05T05:34:36.112Z,68.33
2022-11-05T05:44:39.538Z,68.47
2022-11-05T05:54:43.239Z,68.65
2022-11-05T06:04:46.697Z,68.85
2022-11-05T06:14:49.958Z,68.97
2022-11-05T06:24:53.195Z,69.21
2022-11-05T06:34:56.504Z,69.23
2022-11-05T06:44:59.867Z,69.47
2022-11-05T06:55:03.184Z,69.62
2022-11-05T07:05:07.621Z,69.93
2022-11-05T07:15:12.722Z,70.08
2022-11-05T07:25:15.987Z,69.97
2022-11-05T07:35:19.245Z,70.00
2022-11-05T07:45:23.572Z,70.09
2022-11-05T07:55:27.002Z,69.94
2022-11-05T08:05:31.625Z,69.74
2022-11-05T08:15:35.659Z,69.60
2022-11-05T08:25:40.086Z,69.34
2022-11-05T08:35:43.895Z,69.34
2022-11-05T08:45:47.271Z,69.36
2022-11-05T08:55:51.692Z,69.35
2022-11-05T09:05:54.953Z,69.23
2022-11-05T09:15:59.528Z,69.13
2022-11-05T09:26:02.947Z,69.13
2022-11-05T09:36:06.979Z,69.06
2022-11-05T09:46:39.241Z,69.08
2022-11-05T09:56:42.567Z,68.99
2022-11-05T10:06:59.522Z,69.07
2022-11-05T10:17:15.989Z,69.13
2022-11-05T10:27:27.845Z,69.02
2022-11-05T10:37:40.630Z,69.06
2022-11-05T10:48:15.952Z,69.07
2022-11-05T10:58:29.159Z,69.21
2022-11-05T11:08:35.855Z,69.53
2022-11-05T11:18:42.319Z,69.58
2022-11-05T11:29:01.934Z,69.90
2022-11-05T11:39:07.375Z,70.35
2022-11-05T11:49:40.454Z,70.44
2022-11-05T12:00:10.253Z,70.76
2022-11-05T12:10:37.851Z,70.75
2022-11-05T12:21:05.296Z,70.71
2022-11-05T12:31:08.577Z,70.53
2022-11-05T12:41:27.036Z,70.59
2022-11-05T12:51:49.482Z,70.78
2022-11-05T13:02:03.743Z,70.65
2022-11-05T13:12:12.235Z,70.80
2022-11-05T13:22:15.470Z,71.08
2022-11-05T13:32:27.390Z,70.90
2022-11-05T13:42:36.742Z,70.89
2022-11-05T13:53:05.194Z,70.93
2022-11-05T14:03:20.996Z,70.97
2022-11-05T14:13:31.579Z,71.12
2022-11-05T14:23:48.878Z,71.30
2022-11-05T14:34:03.788Z,71.27
2022-11-05T14:44:08.694Z,71.34
2022-11-05T14:54:24.248Z,71.57
2022-11-05T15:04:33.491Z,71.27
2022-11-05T15:14:47.086Z,71.39
2022-11-05T15:24:50.878Z,71.50
2022-11-05T15:34:56.041Z,71.46
2022-11-05T15:45:00.607Z,71.80
2022-11-05T15:55:13.075Z,71.68
2022-11-05T16:05:16.328Z,71.54
2022-11-05T16:15:23.579Z,71.69
2022-11-05T16:25:40.434Z,71.72
2022-11-05T16:35:49.517Z,71.53
2022-11-05T16:45:59.938Z,71.43
2022-11-05T16:56:04.624Z,71.65
2022-11-05T17:06:08.125Z,71.52
2022-11-05T17:16:14.003Z,71.49
2022-11-05T17:26:17.343Z,71.42
2022-11-05T17:36:20.580Z,71.35
2022-11-05T17:46:24.954Z,71.41
2022-11-05T17:56:34.452Z,71.32
2022-11-05T18:06:41.125Z,71.36
2022-11-05T18:16:44.527Z,71.33
2022-11-05T18:26:48.224Z,71.46
2022-11-05T18:36:56.215Z,71.35
2022-11-05T18:47:00.162Z,71.36
2022-11-05T18:57:03.764Z,71.32
2022-11-05T19:07:08.541Z,71.33
2022-11-05T19:17:12.015Z,71.29
2022-11-05T19:27:16.593Z,71.13
2022-11-05T19:37:20.821Z,71.04
2022-11-05T19:47:24.173Z,71.06
2022-11-05T19:57:28.009Z,71.06
2022-11-05T20:07:31.288Z,71.01
2022-11-05T20:17:34.876Z,70.92
2022-11-05T20:27:38.800Z,71.14
2022-11-05T20:37:42.178Z,71.53
2022-11-05T20:47:45.710Z,71.68
2022-11-05T20:57:49.055Z,71.82
2022-11-05T21:07:52.934Z,71.79
2022-11-05T21:17:56.360Z,71.97
2022-11-05T21:28:03.051Z,72.12
2022-11-05T21:38:06.399Z,72.04
2022-11-05T21:48:10.376Z,72.11
2022-11-05T21:58:34.999Z,72.17
2022-11-05T22:08:38.236Z,72.16
2022-11-05T22:18:41.550Z,72.34
2022-11-05T22:28:44.924Z,72.30
2022-11-05T22:38:48.728Z,72.46
2022-11-05T22:48:52.711Z,72.44
2022-11-05T22:58:56.363Z,72.58
2022-11-05T23:09:18.819Z,72.72
2022-11-05T23:19:42.037Z,72.80
2022-11-05T23:29:45.319Z,72.80
2022-11-05T23:39:48.571Z,72.86
2022-11-05T23:49:52.232Z,72.78
2022-11-05T23:59:55.460Z,73.09
